Capitol Logistics 1154


LFPG
Charles de Gaulle
Paris, FR
EBLG
Liège Airport
Liege, BE

Activity Log

Date Flight Route Aircraft Duration
10/31/2019 CPX754 Not Available B738 0h 50m

Route Details

Aircraft Information
Primary: Boeing 737-800BCF
Backup: Not Available
Route Data
Distance: 149nm
Sched. Duration: 0h 50m
Avg. Duration: 0h 50m (-0m)
Times Flown: 1
Recm'd Route: Not Available
Planned Altitude: 14,000ft
Origin Wx: LFPG 310600Z AUTO 02009KT 7000 NSC 02/01 Q1027 TEMPO BKN006
Dest. Wx: EBLG 310620Z 04009KT 7000 BKN005 02/01 Q1029 BECMG SCT008
Notes:

Financial History
Total Freight: 32,208lbs
Average Load: 32,208lbs/flt
Fuel Used: 2,555lbs
Avg. Fuel Used: 2,555lbs/flt
Fuel Expense: $2,427
Avg. Fuel Expense: $2,427
Avg. Fuel Cost: $0.95/lbs
Total Gross Income: $64,416
Pilot Pay: $229
Total Expenses: $7,009
Total Revenue: $54,764
Average Revenue: $64,416.00